Time;durP1;ratioP1;P1;durP2;ratioP2;P2;SDS_P1;SDS_P2;PMS_P1;PMS_P2;Temp;Humidity;BMP_temperature;BMP_pressure;BME280_temperature;BME280_humidity;BME280_pressure;Samples;Min_cycle;Max_cycle;Signal;HPM_P1;HPM_P2
2021/03/07 00:01:13;;;;;;;23.10;9.18;;;-0.20;74.60;;;;;;5050289;28;20080;-61
2021/03/07 00:03:40;;;;;;;27.70;9.38;;;-0.20;74.90;;;;;;5047440;28;20060;-61
2021/03/07 00:06:07;;;;;;;30.30;9.73;;;-0.20;74.40;;;;;;5029108;28;20504;-62
2021/03/07 00:08:40;;;;;;;29.98;10.07;;;-0.30;74.30;;;;;;5049240;28;20048;-62
2021/03/07 00:11:21;;;;;;;23.48;9.25;;;-0.30;73.30;;;;;;5029404;28;20783;-61
2021/03/07 00:13:49;;;;;;;23.48;8.90;;;-0.40;74.00;;;;;;5031689;28;20076;-62
2021/03/07 00:16:15;;;;;;;20.35;8.68;;;-0.40;75.40;;;;;;5048954;28;20053;-62
2021/03/07 00:18:42;;;;;;;24.83;9.57;;;-0.40;75.90;;;;;;5049181;28;20045;-62
2021/03/07 00:21:08;;;;;;;29.00;10.25;;;-0.40;75.60;;;;;;5046892;28;20045;-62
2021/03/07 00:23:35;;;;;;;21.50;8.52;;;-0.30;75.70;;;;;;5049041;28;20041;-62
2021/03/07 00:26:02;;;;;;;20.83;8.23;;;-0.30;76.00;;;;;;5048185;28;20047;-61
2021/03/07 00:28:29;;;;;;;20.05;8.50;;;-0.40;75.80;;;;;;5030025;28;20488;-61
2021/03/07 00:30:55;;;;;;;28.88;8.98;;;-0.40;75.40;;;;;;5051259;28;20059;-61
2021/03/07 00:33:22;;;;;;;24.85;9.75;;;-0.40;75.60;;;;;;5037780;28;20048;-61
2021/03/07 00:35:48;;;;;;;22.55;8.88;;;-0.50;75.20;;;;;;5033204;28;20045;-62
2021/03/07 00:38:16;;;;;;;17.17;8.13;;;-0.50;76.10;;;;;;5053801;28;20107;-62
2021/03/07 00:40:42;;;;;;;28.77;11.00;;;-0.50;76.50;;;;;;5028187;28;20059;-61
2021/03/07 00:43:09;;;;;;;19.38;8.60;;;-0.50;77.40;;;;;;5030759;28;20103;-62
2021/03/07 00:45:35;;;;;;;26.48;9.15;;;-0.60;75.90;;;;;;5049718;28;20499;-62
2021/03/07 00:48:02;;;;;;;23.80;9.43;;;-0.60;76.00;;;;;;5036400;28;20048;-63
2021/03/07 00:50:29;;;;;;;31.50;10.63;;;-0.60;76.40;;;;;;5027086;28;20111;-62
2021/03/07 00:52:57;;;;;;;26.70;9.70;;;-0.60;75.60;;;;;;5049049;28;20095;-62
2021/03/07 00:55:24;;;;;;;29.80;10.23;;;-0.60;75.40;;;;;;5049259;28;20419;-62
2021/03/07 00:57:51;;;;;;;30.17;9.45;;;-0.60;75.00;;;;;;5015850;28;20049;-62
2021/03/07 01:00:26;;;;;;;26.10;10.73;;;-0.70;74.90;;;;;;5033270;28;20487;-62
2021/03/07 01:02:53;;;;;;;22.48;10.85;;;-0.80;75.60;;;;;;5048906;28;20090;-62
2021/03/07 01:05:20;;;;;;;27.95;10.88;;;-0.80;75.60;;;;;;5050478;28;20045;-62
2021/03/07 01:07:47;;;;;;;27.92;10.13;;;-0.80;75.20;;;;;;5052345;28;20503;-62
2021/03/07 01:10:20;;;;;;;23.40;10.35;;;-0.80;74.90;;;;;;5029195;28;20114;-62
2021/03/07 01:12:50;;;;;;;24.45;9.20;;;-0.80;74.80;;;;;;5049536;28;20041;-61
2021/03/07 01:15:20;;;;;;;28.45;9.02;;;-0.80;75.90;;;;;;5032587;28;20045;-61
2021/03/07 01:17:46;;;;;;;29.67;9.93;;;-0.80;75.50;;;;;;5053518;28;20083;-62
2021/03/07 01:20:16;;;;;;;26.88;9.35;;;-0.90;76.00;;;;;;5055448;28;20056;-61
2021/03/07 01:22:52;;;;;;;24.10;9.85;;;-0.90;75.60;;;;;;5023642;28;20064;-61
2021/03/07 01:25:20;;;;;;;26.17;7.50;;;-1.00;75.30;;;;;;5036932;28;20029;-62
2021/03/07 01:27:48;;;;;;;23.77;8.13;;;-1.00;75.30;;;;;;5044778;28;20503;-61
2021/03/07 01:30:16;;;;;;;18.60;7.95;;;-1.00;75.40;;;;;;5010674;28;20057;-61
2021/03/07 01:32:43;;;;;;;28.50;8.80;;;-1.00;76.10;;;;;;5033174;28;20045;-62
2021/03/07 01:35:11;;;;;;;27.10;7.82;;;-1.00;76.00;;;;;;5038636;28;20087;-61
2021/03/07 01:37:37;;;;;;;23.02;8.73;;;-1.10;76.70;;;;;;5054071;28;20055;-61
2021/03/07 01:40:09;;;;;;;20.77;7.28;;;-1.10;76.90;;;;;;5066394;28;20056;-61
2021/03/07 01:42:37;;;;;;;20.70;7.30;;;-1.20;76.30;;;;;;5083773;28;20056;-61
2021/03/07 01:45:05;;;;;;;19.10;6.65;;;-1.20;76.30;;;;;;5073868;28;20048;-61
2021/03/07 01:47:33;;;;;;;22.98;7.68;;;-1.20;76.80;;;;;;5078422;28;20044;-62
2021/03/07 01:50:01;;;;;;;19.45;6.72;;;-1.20;76.90;;;;;;5060536;28;20407;-62
2021/03/07 01:52:27;;;;;;;18.05;6.93;;;-1.20;76.90;;;;;;5037223;28;20047;-62
2021/03/07 01:54:54;;;;;;;24.98;6.72;;;-1.20;76.90;;;;;;5072634;28;20040;-62
2021/03/07 01:57:25;;;;;;;20.52;6.70;;;-1.30;76.90;;;;;;5074108;28;20041;-62
2021/03/07 01:59:56;;;;;;;26.67;8.52;;;-1.40;76.60;;;;;;5052616;28;20061;-61
2021/03/07 02:02:25;;;;;;;;;;;-1.40;76.20;;;;;;5053607;28;20098;-60
2021/03/07 02:04:53;;;;;;;17.90;6.18;;;-1.40;77.30;;;;;;5066392;28;20602;-62
2021/03/07 02:07:20;;;;;;;19.42;7.47;;;-1.50;76.90;;;;;;5071905;28;20049;-61
2021/03/07 02:09:49;;;;;;;20.67;7.40;;;-1.50;76.80;;;;;;5072465;28;20041;-62
2021/03/07 02:12:16;;;;;;;25.90;7.15;;;-1.50;76.70;;;;;;5074927;28;20403;-61
2021/03/07 02:14:43;;;;;;;22.70;8.00;;;-1.50;77.30;;;;;;5072440;28;20033;-61
2021/03/07 02:17:10;;;;;;;20.02;7.50;;;-1.60;77.40;;;;;;5052516;28;20074;-61
2021/03/07 02:19:40;;;;;;;29.15;8.35;;;-1.60;77.50;;;;;;5072907;28;20086;-62
2021/03/07 02:22:13;;;;;;;28.27;8.45;;;-1.60;77.30;;;;;;5037363;28;20052;-61
2021/03/07 02:24:41;;;;;;;23.73;8.57;;;-1.60;77.50;;;;;;5072074;28;20056;-61
2021/03/07 02:27:07;;;;;;;23.17;7.68;;;-1.60;77.40;;;;;;5041030;28;20048;-61
2021/03/07 02:29:34;;;;;;;19.45;7.07;;;-1.60;76.90;;;;;;5076008;28;20107;-61
2021/03/07 02:32:06;;;;;;;24.23;7.50;;;-1.60;76.20;;;;;;5071144;28;20037;-61
2021/03/07 02:34:39;;;;;;;;;;;-1.60;76.70;;;;;;5073187;28;20075;-62
2021/03/07 02:37:09;;;;;;;19.20;6.70;;;-1.60;76.60;;;;;;5050329;28;19924;-62
2021/03/07 02:39:41;;;;;;;18.52;8.10;;;-1.70;76.30;;;;;;5055332;28;20053;-61
2021/03/07 02:42:15;;;;;;;24.95;7.00;;;-1.70;76.70;;;;;;5054450;28;20102;-61
2021/03/07 02:44:46;;;;;;;20.27;6.53;;;-1.80;76.50;;;;;;5072192;28;20044;-61
2021/03/07 02:47:14;;;;;;;19.50;7.20;;;-1.80;77.00;;;;;;5054665;28;20048;-61
2021/03/07 02:49:42;;;;;;;21.42;7.13;;;-1.90;76.30;;;;;;5071555;28;20071;-62
2021/03/07 02:52:09;;;;;;;18.15;6.35;;;-2.00;77.50;;;;;;5053061;28;20044;-62
2021/03/07 02:54:38;;;;;;;19.73;6.53;;;-2.00;77.40;;;;;;5052993;28;20048;-64
2021/03/07 02:57:05;;;;;;;16.40;6.80;;;-1.90;78.00;;;;;;5066540;28;20491;-61
2021/03/07 02:59:36;;;;;;;21.95;6.93;;;-1.90;77.50;;;;;;5067808;28;20043;-62
2021/03/07 03:02:04;;;;;;;19.45;6.25;;;-1.90;77.30;;;;;;5071470;28;20040;-61
2021/03/07 03:04:33;;;;;;;19.48;6.80;;;-1.90;77.10;;;;;;5072270;28;20418;-62
2021/03/07 03:07:02;;;;;;;20.50;6.90;;;-2.00;77.40;;;;;;5071720;28;20101;-61
2021/03/07 03:09:31;;;;;;;18.42;6.88;;;-2.00;77.70;;;;;;5072328;28;20041;-63
2021/03/07 03:11:59;;;;;;;22.42;7.65;;;-2.00;77.20;;;;;;5072967;28;20112;-62
2021/03/07 03:14:26;;;;;;;17.75;7.25;;;-2.10;77.50;;;;;;5052633;28;20627;-61
2021/03/07 03:16:56;;;;;;;21.98;7.40;;;-2.10;77.60;;;;;;5071237;28;20566;-62
2021/03/07 03:19:26;;;;;;;18.05;7.53;;;-2.10;77.80;;;;;;5053702;28;20139;-61
2021/03/07 03:21:53;;;;;;;21.80;8.82;;;-2.20;77.80;;;;;;5070706;28;20036;-62
2021/03/07 03:24:20;;;;;;;24.13;8.13;;;-2.20;77.60;;;;;;5071618;28;20040;-61
2021/03/07 03:26:47;;;;;;;16.85;7.43;;;-2.20;77.30;;;;;;5063935;28;20047;-62
2021/03/07 03:29:14;;;;;;;17.30;7.60;;;-2.20;77.30;;;;;;5053491;28;20492;-61
2021/03/07 03:31:40;;;;;;;20.98;6.97;;;-2.20;76.70;;;;;;5070854;28;20438;-62
2021/03/07 03:34:08;;;;;;;17.98;6.90;;;-2.20;76.60;;;;;;5069948;28;20097;-62
2021/03/07 03:36:37;;;;;;;19.10;8.20;;;-2.20;76.30;;;;;;5051320;28;20040;-62
2021/03/07 03:39:13;;;;;;;21.48;7.55;;;-2.30;75.80;;;;;;5036788;28;20044;-61
2021/03/07 03:41:40;;;;;;;18.15;7.35;;;-2.30;75.40;;;;;;5071560;28;20051;-61
2021/03/07 03:44:11;;;;;;;16.67;6.78;;;-2.40;75.80;;;;;;5052692;28;20052;-61
2021/03/07 03:46:40;;;;;;;24.27;7.90;;;-2.40;76.80;;;;;;5053381;28;20032;-62
2021/03/07 03:49:29;;;;;;;19.33;7.30;;;-2.40;77.30;;;;;;5053162;28;20086;-61
2021/03/07 03:52:01;;;;;;;17.00;7.25;;;-2.40;78.10;;;;;;5071612;28;20124;-61
2021/03/07 03:54:29;;;;;;;20.23;7.32;;;-2.50;79.20;;;;;;5066374;28;20040;-61
2021/03/07 03:56:59;;;;;;;21.52;7.65;;;-2.50;80.00;;;;;;5061131;28;20045;-62
2021/03/07 03:59:30;;;;;;;22.75;7.93;;;-2.50;80.50;;;;;;5045458;28;20044;-62
2021/03/07 04:02:00;;;;;;;25.80;9.00;;;-2.50;81.30;;;;;;5070752;28;20041;-61
2021/03/07 04:04:29;;;;;;;19.05;7.35;;;-2.50;80.80;;;;;;5052238;28;20056;-62
2021/03/07 04:06:56;;;;;;;20.42;8.95;;;-2.50;80.80;;;;;;5044937;28;20507;-61
2021/03/07 04:09:24;;;;;;;20.27;8.73;;;-2.50;80.40;;;;;;5068223;28;20052;-61
2021/03/07 04:11:51;;;;;;;18.25;7.55;;;-2.50;80.30;;;;;;5070477;28;20084;-61
2021/03/07 04:14:19;;;;;;;20.60;7.35;;;-2.50;79.60;;;;;;5053330;28;20106;-62
2021/03/07 04:16:49;;;;;;;21.25;7.90;;;-2.60;79.70;;;;;;5073720;28;20025;-61
2021/03/07 04:19:17;;;;;;;18.27;6.82;;;-2.60;80.30;;;;;;5069588;28;20033;-61
2021/03/07 04:21:46;;;;;;;15.10;6.13;;;-2.70;81.70;;;;;;5051021;28;20475;-62
2021/03/07 04:24:12;;;;;;;22.52;7.30;;;-2.70;82.90;;;;;;5050596;28;20419;-61
2021/03/07 04:26:39;;;;;;;21.58;7.28;;;-2.70;82.70;;;;;;5069639;28;20549;-61
2021/03/07 04:29:06;;;;;;;17.35;6.95;;;-2.70;81.90;;;;;;5069667;28;20048;-63
2021/03/07 04:31:34;;;;;;;19.88;6.50;;;-2.70;81.30;;;;;;5052902;28;20045;-62
2021/03/07 04:34:01;;;;;;;19.13;6.97;;;-2.70;81.00;;;;;;5054563;28;20040;-61
2021/03/07 04:36:28;;;;;;;22.83;6.93;;;-2.70;81.30;;;;;;5071671;28;20483;-61
2021/03/07 04:38:56;;;;;;;14.68;6.95;;;-2.70;81.20;;;;;;5070161;28;20487;-61
2021/03/07 04:41:22;;;;;;;18.38;7.63;;;-2.70;81.10;;;;;;5068715;28;20051;-60
2021/03/07 04:43:52;;;;;;;20.20;7.13;;;-2.70;81.20;;;;;;5071925;28;20043;-62
2021/03/07 04:46:20;;;;;;;25.65;6.68;;;-2.80;81.10;;;;;;5056482;28;20037;-61
2021/03/07 04:48:47;;;;;;;20.38;7.38;;;-2.80;81.40;;;;;;5040636;28;20148;-61
2021/03/07 04:51:14;;;;;;;18.50;6.85;;;-2.80;81.20;;;;;;5050018;28;20047;-60
2021/03/07 04:53:41;;;;;;;19.50;8.50;;;-2.80;81.60;;;;;;5064973;28;20044;-62
2021/03/07 04:56:08;;;;;;;19.60;6.88;;;-2.90;81.70;;;;;;5071385;28;20523;-60
2021/03/07 04:58:35;;;;;;;20.98;7.88;;;-2.80;81.40;;;;;;5068689;28;20040;-61
2021/03/07 05:01:03;;;;;;;20.23;7.00;;;-2.90;81.60;;;;;;5069784;28;20055;-62
2021/03/07 05:03:31;;;;;;;27.85;9.48;;;-2.90;81.50;;;;;;5048065;28;20591;-62
2021/03/07 05:05:58;;;;;;;19.23;8.93;;;-2.90;81.90;;;;;;5069407;28;20530;-62
2021/03/07 05:08:25;;;;;;;24.42;8.05;;;-2.90;81.00;;;;;;5070741;28;20046;-61
2021/03/07 05:10:56;;;;;;;29.90;10.00;;;-3.00;80.80;;;;;;5037172;28;20041;-62
2021/03/07 05:13:22;;;;;;;36.13;11.30;;;-3.00;81.60;;;;;;5070375;28;20032;-62
2021/03/07 05:15:49;;;;;;;36.17;12.07;;;-3.00;82.50;;;;;;5069182;28;20044;-61
2021/03/07 05:18:16;;;;;;;38.97;12.38;;;-3.00;82.80;;;;;;5069980;28;20032;-60
2021/03/07 05:20:43;;;;;;;32.28;12.70;;;-3.00;82.80;;;;;;5065924;28;20041;-61
2021/03/07 05:23:10;;;;;;;30.88;10.43;;;-3.10;82.10;;;;;;5063279;28;20052;-63
2021/03/07 05:25:36;;;;;;;30.52;10.38;;;-3.10;82.10;;;;;;5066890;28;20041;-61
2021/03/07 05:28:03;;;;;;;28.30;9.77;;;-3.10;83.10;;;;;;5068881;28;20041;-62
2021/03/07 05:30:30;;;;;;;31.45;11.25;;;-3.10;83.10;;;;;;5068015;28;20048;-61
2021/03/07 05:32:56;;;;;;;31.80;10.85;;;-3.10;83.40;;;;;;5067901;28;20044;-61
2021/03/07 05:35:24;;;;;;;34.17;13.68;;;-3.10;83.50;;;;;;5051800;28;20056;-61
2021/03/07 05:37:50;;;;;;;33.58;11.73;;;-3.10;83.40;;;;;;5050248;28;20082;-61
2021/03/07 05:40:17;;;;;;;26.25;10.35;;;-3.00;83.60;;;;;;5066541;28;20052;-61
2021/03/07 05:42:44;;;;;;;25.40;8.98;;;-3.00;83.00;;;;;;5027575;28;20396;-61
2021/03/07 05:45:24;;;;;;;25.27;8.75;;;-3.00;83.40;;;;;;5052219;28;20780;-63
2021/03/07 05:47:52;;;;;;;23.40;7.78;;;-3.00;83.40;;;;;;5054400;28;20083;-62
2021/03/07 05:50:20;;;;;;;22.17;7.63;;;-3.00;83.50;;;;;;5039396;28;20040;-61
2021/03/07 05:52:49;;;;;;;25.83;8.82;;;-2.90;84.00;;;;;;5052253;28;20741;-62
2021/03/07 05:55:15;;;;;;;19.55;7.47;;;-2.90;83.70;;;;;;5056076;28;20144;-61
2021/03/07 05:57:46;;;;;;;18.85;8.05;;;-2.90;83.40;;;;;;5050404;28;20041;-61
2021/03/07 06:00:14;;;;;;;21.63;8.45;;;-2.90;83.30;;;;;;5046435;28;20047;-60
2021/03/07 06:02:42;;;;;;;19.67;8.50;;;-2.90;83.60;;;;;;5032966;28;20065;-61
2021/03/07 06:05:13;;;;;;;23.60;9.10;;;-2.80;83.20;;;;;;5023018;28;20055;-61
2021/03/07 06:07:40;;;;;;;18.90;6.80;;;-2.80;83.10;;;;;;5044824;28;20048;-61
2021/03/07 06:10:13;;;;;;;21.80;7.80;;;-2.70;82.70;;;;;;5053769;28;20060;-61
2021/03/07 06:12:41;;;;;;;15.85;5.97;;;-2.70;83.10;;;;;;5054108;28;20045;-60
2021/03/07 06:15:09;;;;;;;18.48;7.38;;;-2.70;83.40;;;;;;5040177;28;20037;-62
2021/03/07 06:17:44;;;;;;;22.20;8.00;;;-2.60;83.40;;;;;;5044472;28;20050;-60
2021/03/07 06:20:13;;;;;;;17.98;7.95;;;-2.50;83.00;;;;;;5054973;28;20128;-61
2021/03/07 06:22:50;;;;;;;26.75;8.43;;;-2.40;83.10;;;;;;5034212;28;20047;-63
2021/03/07 06:25:17;;;;;;;23.58;8.10;;;-2.30;83.10;;;;;;5053245;28;20063;-61
2021/03/07 06:27:44;;;;;;;23.17;7.43;;;-2.30;83.00;;;;;;5034352;28;20037;-61
2021/03/07 06:30:13;;;;;;;19.73;8.93;;;-2.30;82.50;;;;;;5052833;28;20091;-61
2021/03/07 06:32:54;;;;;;;24.60;8.80;;;-2.10;82.60;;;;;;5048821;28;20056;-61
2021/03/07 06:35:29;;;;;;;15.63;7.30;;;-2.10;82.70;;;;;;5024571;28;21221;-61
2021/03/07 06:37:59;;;;;;;15.73;6.90;;;-2.00;82.50;;;;;;5055343;28;20036;-61
2021/03/07 06:40:30;;;;;;;22.23;7.30;;;-1.90;82.70;;;;;;5039534;28;20105;-61
2021/03/07 06:42:57;;;;;;;18.73;7.57;;;-1.90;82.40;;;;;;5029595;28;20045;-61
2021/03/07 06:45:24;;;;;;;19.70;7.93;;;-1.80;82.70;;;;;;5050052;28;20060;-62
2021/03/07 06:47:58;;;;;;;14.32;7.00;;;-1.80;82.90;;;;;;5046821;28;20049;-62
2021/03/07 06:50:25;;;;;;;20.25;6.95;;;-1.70;83.10;;;;;;5032841;28;20056;-61
2021/03/07 06:52:54;;;;;;;15.48;7.07;;;-1.60;83.50;;;;;;5050770;28;20562;-61
2021/03/07 06:55:23;;;;;;;19.90;7.72;;;-1.50;83.50;;;;;;5030008;28;20079;-61
2021/03/07 06:57:50;;;;;;;21.35;7.40;;;-1.40;83.90;;;;;;5060974;28;20037;-62
2021/03/07 07:00:34;;;;;;;17.83;7.68;;;-1.30;83.70;;;;;;5038124;28;20394;-62
2021/03/07 07:03:10;;;;;;;20.75;8.20;;;-1.20;83.20;;;;;;5051133;28;20049;-61
2021/03/07 07:05:42;;;;;;;22.45;6.65;;;-1.10;82.20;;;;;;5070309;28;20090;-62
2021/03/07 07:08:11;;;;;;;20.55;7.53;;;-1.00;81.70;;;;;;5036453;28;20048;-63
2021/03/07 07:11:07;;;;;;;25.00;10.52;;;-0.90;82.40;;;;;;5048818;28;20106;-61
2021/03/07 07:13:47;;;;;;;23.88;7.78;;;-0.80;82.10;;;;;;5037561;28;20056;-61
2021/03/07 07:16:33;;;;;;;22.17;8.00;;;-0.70;81.60;;;;;;5046012;28;20041;-60
2021/03/07 07:19:01;;;;;;;24.02;9.25;;;-0.60;81.80;;;;;;5031358;28;20045;-61
2021/03/07 07:21:27;;;;;;;18.10;7.78;;;-0.50;81.60;;;;;;5054429;28;20063;-60
2021/03/07 07:23:54;;;;;;;16.90;6.88;;;-0.30;81.20;;;;;;5034218;28;20090;-61
2021/03/07 07:26:21;;;;;;;19.08;7.05;;;-0.20;80.80;;;;;;5058354;28;20055;-61
2021/03/07 07:28:48;;;;;;;17.77;7.60;;;-0.10;81.10;;;;;;5037359;28;20052;-60
2021/03/07 07:31:36;;;;;;;22.70;8.50;;;0.00;80.30;;;;;;5066932;28;20098;-62
2021/03/07 07:34:11;;;;;;;21.58;8.73;;;0.10;80.40;;;;;;5031092;28;20049;-61
2021/03/07 07:36:54;;;;;;;18.58;8.77;;;0.20;79.30;;;;;;5029428;28;20032;-61
2021/03/07 07:39:41;;;;;;;18.70;8.05;;;0.30;79.60;;;;;;5050442;28;20549;-62
2021/03/07 07:42:19;;;;;;;16.25;6.72;;;0.40;79.00;;;;;;5040512;28;20045;-61
2021/03/07 07:44:47;;;;;;;16.60;6.93;;;0.50;79.30;;;;;;5040030;28;20029;-61
2021/03/07 07:47:14;;;;;;;16.35;6.95;;;0.70;78.60;;;;;;5054637;28;20040;-60
2021/03/07 07:49:48;;;;;;;18.95;7.32;;;0.80;77.20;;;;;;5029209;28;20099;-62
2021/03/07 07:52:26;;;;;;;16.27;6.43;;;0.90;77.40;;;;;;5048504;28;20052;-61
2021/03/07 07:55:00;;;;;;;15.35;6.28;;;1.10;76.60;;;;;;5040656;28;20053;-61
2021/03/07 07:57:35;;;;;;;14.25;6.50;;;1.20;75.90;;;;;;5043384;28;20041;-60
2021/03/07 08:00:10;;;;;;;17.42;6.95;;;1.30;75.80;;;;;;5040404;28;20041;-60
2021/03/07 08:02:47;;;;;;;17.80;5.97;;;1.40;75.20;;;;;;5042861;28;20488;-63
2021/03/07 08:05:20;;;;;;;15.00;6.22;;;1.60;74.70;;;;;;5057269;28;20055;-61
2021/03/07 08:08:04;;;;;;;16.25;6.68;;;1.70;74.10;;;;;;5044861;28;20052;-61
2021/03/07 08:10:39;;;;;;;15.68;5.75;;;1.80;73.50;;;;;;5041772;28;20083;-61
2021/03/07 08:13:13;;;;;;;15.63;6.40;;;2.00;74.00;;;;;;5041800;28;20040;-61
2021/03/07 08:15:45;;;;;;;13.48;5.53;;;2.10;74.20;;;;;;5040652;28;20037;-61
2021/03/07 08:18:13;;;;;;;18.83;6.20;;;2.20;73.70;;;;;;5051347;28;20447;-61
2021/03/07 08:20:42;;;;;;;14.98;6.32;;;2.40;73.40;;;;;;5048697;28;20353;-61
2021/03/07 08:23:17;;;;;;;14.68;5.40;;;2.50;71.40;;;;;;5060311;28;20407;-62
2021/03/07 08:25:47;;;;;;;13.20;4.85;;;2.70;69.80;;;;;;5055732;28;20037;-61
2021/03/07 08:28:29;;;;;;;13.05;5.15;;;2.80;68.60;;;;;;5049788;28;20131;-61
2021/03/07 08:31:03;;;;;;;12.38;5.45;;;3.00;66.60;;;;;;5033657;28;20491;-61
2021/03/07 08:33:31;;;;;;;17.10;6.97;;;3.10;66.00;;;;;;5042628;28;20041;-61
2021/03/07 08:36:24;;;;;;;12.77;5.20;;;3.20;66.20;;;;;;5043914;28;20091;-61
2021/03/07 08:38:57;;;;;;;15.27;5.43;;;3.40;64.70;;;;;;5030337;28;20044;-61
2021/03/07 08:41:46;;;;;;;13.43;5.40;;;3.50;65.20;;;;;;5048216;28;20052;-61
2021/03/07 08:44:14;;;;;;;16.83;4.80;;;3.70;64.40;;;;;;5040954;28;20037;-62
2021/03/07 08:46:40;;;;;;;10.73;5.20;;;3.80;63.70;;;;;;5029827;28;20057;-61
2021/03/07 08:49:16;;;;;;;12.20;5.10;;;4.00;63.90;;;;;;5029205;28;20095;-61
2021/03/07 08:51:46;;;;;;;15.82;5.55;;;4.20;63.20;;;;;;5013002;28;20049;-62
2021/03/07 08:54:22;;;;;;;12.55;5.00;;;4.30;63.20;;;;;;5014280;28;20506;-61
2021/03/07 08:56:50;;;;;;;27.33;8.63;;;4.50;62.30;;;;;;5031033;28;20496;-62
2021/03/07 08:59:18;;;;;;;14.15;4.85;;;4.60;61.90;;;;;;5040367;28;20079;-61
2021/03/07 09:01:49;;;;;;;102.10;29.80;;;4.80;60.90;;;;;;5038370;28;20072;-61
2021/03/07 09:04:16;;;;;;;29.90;10.35;;;4.80;59.70;;;;;;5051553;28;20125;-61
2021/03/07 09:06:44;;;;;;;72.25;23.33;;;4.90;59.30;;;;;;5024020;28;20511;-61
2021/03/07 09:09:22;;;;;;;16.00;7.90;;;5.10;58.70;;;;;;5045120;28;20048;-61
2021/03/07 09:12:03;;;;;;;35.55;16.17;;;5.20;58.70;;;;;;5039136;28;20046;-61
2021/03/07 09:14:34;;;;;;;22.90;9.48;;;5.20;58.30;;;;;;5044693;28;20056;-61
2021/03/07 09:17:04;;;;;;;12.32;5.03;;;5.40;56.90;;;;;;5036445;28;20041;-62
2021/03/07 09:19:37;;;;;;;10.88;4.10;;;5.40;55.80;;;;;;5020069;28;20042;-61
2021/03/07 09:22:10;;;;;;;14.52;5.40;;;5.50;55.50;;;;;;5046358;28;20052;-61
2021/03/07 09:24:37;;;;;;;13.57;5.00;;;5.60;55.60;;;;;;5045625;28;20491;-61
2021/03/07 09:27:11;;;;;;;11.93;4.53;;;5.70;55.10;;;;;;5045011;28;20123;-61
2021/03/07 09:30:04;;;;;;;9.55;3.65;;;5.90;54.00;;;;;;5026513;28;20130;-61
2021/03/07 09:32:45;;;;;;;7.28;3.70;;;5.90;53.90;;;;;;5039248;28;20136;-61
2021/03/07 09:35:44;;;;;;;6.82;3.28;;;6.00;53.60;;;;;;5041776;28;20474;-61
2021/03/07 09:38:13;;;;;;;7.18;2.97;;;6.00;53.60;;;;;;4948154;28;20051;-62
2021/03/07 09:40:42;;;;;;;13.55;3.60;;;6.20;53.50;;;;;;4951411;28;20055;-61
2021/03/07 09:43:20;;;;;;;7.13;2.70;;;6.40;51.40;;;;;;4970335;28;20074;-61
2021/03/07 09:45:49;;;;;;;6.10;2.45;;;6.40;50.60;;;;;;4952013;28;20058;-62
2021/03/07 09:48:22;;;;;;;5.38;2.28;;;6.40;50.20;;;;;;4950763;28;20067;-61
2021/03/07 09:50:49;;;;;;;7.85;2.50;;;6.50;49.80;;;;;;4974392;28;20050;-61
2021/03/07 09:53:16;;;;;;;6.43;2.85;;;6.60;50.40;;;;;;4968014;28;20605;-62
2021/03/07 09:55:43;;;;;;;8.40;2.67;;;6.60;50.30;;;;;;4967935;28;20052;-62
2021/03/07 09:58:11;;;;;;;7.20;3.42;;;6.70;48.90;;;;;;4961367;28;20585;-61
2021/03/07 10:00:40;;;;;;;7.07;3.10;;;6.80;48.30;;;;;;4957518;28;20059;-63
2021/03/07 10:03:25;;;;;;;7.57;2.95;;;6.90;48.50;;;;;;4949161;28;20829;-62
2021/03/07 10:06:07;;;;;;;6.93;2.63;;;6.90;48.40;;;;;;4959519;28;20565;-63
2021/03/07 10:08:38;;;;;;;7.32;2.80;;;7.00;47.00;;;;;;4963627;28;20047;-63
2021/03/07 10:11:12;;;;;;;5.10;2.42;;;7.10;47.70;;;;;;4966491;28;20128;-63
2021/03/07 10:13:40;;;;;;;5.05;1.88;;;7.30;47.40;;;;;;5000906;28;20040;-63
2021/03/07 10:16:09;;;;;;;3.38;1.40;;;7.40;44.90;;;;;;5047465;28;20052;-63
2021/03/07 10:18:38;;;;;;;6.60;2.80;;;7.50;43.70;;;;;;5043674;28;20065;-63
2021/03/07 10:21:06;;;;;;;5.53;2.10;;;7.60;45.30;;;;;;5030304;28;20045;-63
2021/03/07 10:23:37;;;;;;;4.75;2.15;;;7.70;44.50;;;;;;5047123;28;20048;-63
2021/03/07 10:26:07;;;;;;;7.93;2.55;;;7.70;44.60;;;;;;5047168;28;20068;-63
2021/03/07 10:28:37;;;;;;;;;;;7.90;44.10;;;;;;5047694;28;20114;-64
2021/03/07 10:31:09;;;;;;;5.53;1.65;;;7.90;43.20;;;;;;5021225;28;19925;-64
2021/03/07 10:33:38;;;;;;;5.45;2.30;;;8.00;43.30;;;;;;5050182;28;20068;-63
2021/03/07 10:36:20;;;;;;;5.90;2.40;;;8.10;42.70;;;;;;5045769;28;20049;-64
2021/03/07 10:38:51;;;;;;;3.90;1.65;;;8.40;43.70;;;;;;5038868;28;20041;-63
2021/03/07 10:41:27;;;;;;;7.95;1.65;;;8.30;39.80;;;;;;5062403;28;22309;-63
2021/03/07 10:43:56;;;;;;;5.43;1.92;;;8.20;41.20;;;;;;5065835;28;20052;-64
2021/03/07 10:46:26;;;;;;;5.05;2.08;;;8.40;41.70;;;;;;5065216;28;20208;-63
2021/03/07 10:49:07;;;;;;;5.65;2.33;;;8.40;42.30;;;;;;5045833;28;20068;-63
2021/03/07 10:51:37;;;;;;;7.03;3.25;;;8.60;43.10;;;;;;5064415;28;20040;-63
2021/03/07 10:54:05;;;;;;;7.00;2.85;;;8.80;41.80;;;;;;5066926;28;20060;-64
2021/03/07 10:56:40;;;;;;;7.88;2.85;;;8.90;41.20;;;;;;5064481;28;20518;-67
2021/03/07 10:59:09;;;;;;;5.13;2.45;;;9.00;41.20;;;;;;5063676;28;20130;-61
2021/03/07 11:01:38;;;;;;;6.15;2.47;;;9.00;39.10;;;;;;5031279;28;20457;-61
2021/03/07 11:04:05;;;;;;;5.47;2.17;;;9.10;40.20;;;;;;5059777;28;20056;-62
2021/03/07 11:06:32;;;;;;;4.57;2.78;;;8.80;41.00;;;;;;5063701;28;20048;-62
2021/03/07 11:08:59;;;;;;;6.28;2.60;;;9.00;41.70;;;;;;5065872;28;20056;-61
2021/03/07 11:11:25;;;;;;;6.25;2.60;;;8.90;41.00;;;;;;5066827;28;20097;-62
2021/03/07 11:13:52;;;;;;;7.88;3.35;;;9.00;41.30;;;;;;5068180;28;20041;-62
2021/03/07 11:16:18;;;;;;;7.10;2.60;;;9.20;41.60;;;;;;5046639;28;20466;-62
2021/03/07 11:18:45;;;;;;;7.45;2.80;;;9.50;39.90;;;;;;5041117;28;20065;-61
2021/03/07 11:21:12;;;;;;;5.68;2.83;;;9.60;39.80;;;;;;5065586;28;20048;-62
2021/03/07 11:23:38;;;;;;;5.75;2.63;;;9.70;39.40;;;;;;5073348;28;20098;-62
2021/03/07 11:26:05;;;;;;;5.78;2.92;;;9.80;39.40;;;;;;5045580;28;20048;-61
2021/03/07 11:28:32;;;;;;;7.90;2.88;;;9.80;38.90;;;;;;5066126;28;20048;-61
2021/03/07 11:30:58;;;;;;;6.28;2.95;;;9.50;39.00;;;;;;5067844;28;20093;-61
2021/03/07 11:33:26;;;;;;;8.95;3.28;;;9.60;40.20;;;;;;5062851;28;20052;-62
2021/03/07 11:35:53;;;;;;;10.88;3.05;;;9.70;39.80;;;;;;5063154;28;20438;-62
2021/03/07 11:38:20;;;;;;;7.57;3.22;;;9.60;40.00;;;;;;5065378;28;20043;-62
2021/03/07 11:40:47;;;;;;;6.22;2.50;;;9.60;41.00;;;;;;5032331;28;20057;-62
2021/03/07 11:43:16;;;;;;;5.72;2.70;;;9.70;40.60;;;;;;5044720;28;20052;-65
2021/03/07 11:45:57;;;;;;;6.53;2.90;;;9.90;40.00;;;;;;5045371;28;20040;-67
2021/03/07 11:48:29;;;;;;;6.63;3.15;;;9.90;39.50;;;;;;5031409;28;20671;-66
2021/03/07 11:50:56;;;;;;;7.63;3.20;;;9.90;40.20;;;;;;5045738;28;20048;-63
2021/03/07 11:53:23;;;;;;;6.82;2.53;;;9.80;40.20;;;;;;5030677;28;20138;-66
2021/03/07 11:55:50;;;;;;;6.10;3.03;;;10.10;39.30;;;;;;5047421;28;20037;-64
2021/03/07 11:58:17;;;;;;;5.88;2.83;;;9.90;39.10;;;;;;5015711;28;20045;-64
2021/03/07 12:00:43;;;;;;;6.82;3.22;;;10.10;39.80;;;;;;5050415;28;20464;-63
2021/03/07 12:03:10;;;;;;;6.03;2.85;;;10.20;39.60;;;;;;5034534;28;20044;-62
2021/03/07 12:05:37;;;;;;;4.68;2.13;;;10.50;38.90;;;;;;5016487;28;20046;-62
2021/03/07 12:08:04;;;;;;;7.13;2.60;;;10.80;37.40;;;;;;5041229;28;20593;-63
2021/03/07 12:10:31;;;;;;;5.90;2.67;;;11.00;36.40;;;;;;5026317;28;20045;-63
2021/03/07 12:12:58;;;;;;;6.40;2.45;;;11.00;36.20;;;;;;5042198;28;20049;-62
2021/03/07 12:15:24;;;;;;;5.60;2.40;;;11.00;35.60;;;;;;5027246;28;20435;-62
2021/03/07 12:17:51;;;;;;;4.50;2.28;;;11.00;36.20;;;;;;5043692;28;20387;-64
2021/03/07 12:20:17;;;;;;;8.68;2.70;;;11.10;36.10;;;;;;5044646;28;20128;-64
2021/03/07 12:22:46;;;;;;;5.32;2.58;;;11.10;36.20;;;;;;5044528;28;20045;-65
2021/03/07 12:25:14;;;;;;;6.07;2.08;;;11.10;36.50;;;;;;5021204;28;20052;-63
2021/03/07 12:27:41;;;;;;;6.63;2.33;;;11.50;36.20;;;;;;5007201;28;20041;-63
2021/03/07 12:30:08;;;;;;;7.28;2.38;;;11.70;34.80;;;;;;5025299;28;20581;-65
2021/03/07 12:32:35;;;;;;;7.78;2.65;;;12.00;34.40;;;;;;5024675;28;20656;-64
2021/03/07 12:35:03;;;;;;;5.03;2.58;;;12.00;35.00;;;;;;5038528;28;20041;-62
2021/03/07 12:37:30;;;;;;;5.15;2.70;;;12.30;34.60;;;;;;5041827;28;20762;-63
2021/03/07 12:39:57;;;;;;;7.07;3.33;;;12.50;34.00;;;;;;5045666;28;20052;-64
2021/03/07 12:42:23;;;;;;;5.82;2.60;;;12.50;33.80;;;;;;5045261;28;20055;-64
2021/03/07 12:44:52;;;;;;;10.48;4.78;;;12.60;33.10;;;;;;5043007;28;20045;-63
2021/03/07 12:47:19;;;;;;;5.45;2.47;;;12.80;32.90;;;;;;5041123;28;20678;-64
2021/03/07 12:49:46;;;;;;;40.22;16.65;;;13.20;32.90;;;;;;5052929;28;20049;-63
2021/03/07 12:52:13;;;;;;;46.10;19.40;;;13.10;33.00;;;;;;5044184;28;20128;-64
2021/03/07 12:54:39;;;;;;;18.98;9.07;;;13.00;33.00;;;;;;5024399;28;20033;-63
2021/03/07 12:57:06;;;;;;;8.73;3.97;;;13.00;33.70;;;;;;5044143;28;20586;-63